createdAt,value
2023-03-31T00:01:12.876Z,43.75
2023-03-31T00:03:43.955Z,38.13
2023-03-31T00:06:18.141Z,40.17
2023-03-31T00:08:47.288Z,40.75
2023-03-31T00:11:14.616Z,43.00
2023-03-31T00:13:41.971Z,39.92
2023-03-31T00:16:10.623Z,41.38
2023-03-31T00:18:40.912Z,44.70
2023-03-31T00:21:14.955Z,43.67
2023-03-31T00:23:42.522Z,44.35
2023-03-31T00:26:09.913Z,37.85
2023-03-31T00:28:37.332Z,54.40
2023-03-31T00:31:04.805Z,35.65
2023-03-31T00:33:32.238Z,41.08
2023-03-31T00:36:02.116Z,45.05
2023-03-31T00:38:30.708Z,48.25
2023-03-31T00:40:59.599Z,41.75
2023-03-31T00:43:32.348Z,41.35
2023-03-31T00:46:15.459Z,43.53
2023-03-31T00:48:51.590Z,44.10
2023-03-31T00:51:21.497Z,44.33
2023-03-31T00:53:59.785Z,60.30
2023-03-31T00:56:32.023Z,47.35
2023-03-31T00:59:03.731Z,45.95
2023-03-31T01:01:31.824Z,49.67
2023-03-31T01:03:59.626Z,47.22
2023-03-31T01:06:30.970Z,41.17
2023-03-31T01:08:59.986Z,46.63
2023-03-31T01:11:28.238Z,47.88
2023-03-31T01:13:57.627Z,46.25
2023-03-31T01:16:25.004Z,49.42
2023-03-31T01:18:57.533Z,45.70
2023-03-31T01:21:47.311Z,42.13
2023-03-31T01:24:24.199Z,45.70
2023-03-31T01:27:23.896Z,47.22
2023-03-31T01:30:06.070Z,51.63
2023-03-31T01:32:58.194Z,46.53
2023-03-31T01:35:31.213Z,46.85
2023-03-31T01:38:42.558Z,47.20
2023-03-31T01:41:19.013Z,45.95
2023-03-31T01:44:09.190Z,44.72
2023-03-31T01:46:49.477Z,51.22
2023-03-31T01:49:25.541Z,46.72
2023-03-31T01:52:11.572Z,46.40
2023-03-31T01:55:11.303Z,42.90
2023-03-31T01:57:49.424Z,53.13
2023-03-31T02:00:24.041Z,47.83
2023-03-31T02:02:59.748Z,51.58
2023-03-31T02:05:33.904Z,49.28
2023-03-31T02:08:10.998Z,45.38
2023-03-31T02:10:40.877Z,51.63
2023-03-31T02:13:11.039Z,50.20
2023-03-31T02:15:46.293Z,51.70
2023-03-31T02:18:17.248Z,43.30
2023-03-31T02:20:49.092Z,49.40
2023-03-31T02:23:20.016Z,45.95
2023-03-31T02:26:01.171Z,55.58
2023-03-31T02:28:29.892Z,48.53
2023-03-31T02:31:34.966Z,43.55
2023-03-31T02:34:04.095Z,40.28
2023-03-31T02:36:34.716Z,46.17
2023-03-31T02:39:09.770Z,43.55
2023-03-31T02:41:37.554Z,43.58
2023-03-31T02:44:04.985Z,44.85
2023-03-31T02:46:32.892Z,43.13
2023-03-31T02:49:04.557Z,42.30
2023-03-31T02:52:17.130Z,52.53
2023-03-31T02:55:03.567Z,39.33
2023-03-31T02:57:55.986Z,48.90
2023-03-31T03:01:02.138Z,45.17
2023-03-31T03:04:17.343Z,47.22
2023-03-31T03:06:53.831Z,49.78
2023-03-31T03:09:35.898Z,49.53
2023-03-31T03:12:06.699Z,43.35
2023-03-31T03:14:55.403Z,43.53
2023-03-31T03:17:40.659Z,49.30
2023-03-31T03:20:09.836Z,41.88
2023-03-31T03:22:39.205Z,39.65
2023-03-31T03:25:12.854Z,39.47
2023-03-31T03:27:40.602Z,40.47
2023-03-31T03:30:10.608Z,41.95
2023-03-31T03:32:38.381Z,42.17
2023-03-31T03:35:06.918Z,42.97
2023-03-31T03:37:35.409Z,41.15
2023-03-31T03:40:05.836Z,41.42
2023-03-31T03:42:34.372Z,51.67
2023-03-31T03:45:01.943Z,43.30
2023-03-31T03:47:29.463Z,39.85
2023-03-31T03:49:57.016Z,42.40
2023-03-31T03:52:24.388Z,53.33
2023-03-31T03:54:51.797Z,50.28
2023-03-31T03:57:19.214Z,47.50
2023-03-31T03:59:46.640Z,46.67
2023-03-31T04:02:14.500Z,46.88
2023-03-31T04:04:41.986Z,45.88
2023-03-31T04:07:09.359Z,40.78
2023-03-31T04:09:36.846Z,40.20
2023-03-31T04:12:04.586Z,44.28
2023-03-31T04:14:31.946Z,47.25
2023-03-31T04:16:59.345Z,48.47
2023-03-31T04:19:27.575Z,43.22
2023-03-31T04:21:58.888Z,57.35
2023-03-31T04:24:33.144Z,40.63
2023-03-31T04:27:01.277Z,38.05
2023-03-31T04:29:28.653Z,48.22
2023-03-31T04:31:59.967Z,39.97
2023-03-31T04:34:35.067Z,42.80
2023-03-31T04:37:03.576Z,40.42
2023-03-31T04:39:34.615Z,41.95
2023-03-31T04:42:02.204Z,43.97
2023-03-31T04:44:29.783Z,42.67
2023-03-31T04:46:58.855Z,41.38
2023-03-31T04:49:26.286Z,41.45
2023-03-31T04:51:53.725Z,43.15
2023-03-31T04:54:21.218Z,41.90
2023-03-31T04:56:48.658Z,47.97
2023-03-31T04:59:16.222Z,43.42
2023-03-31T05:01:45.719Z,41.35
2023-03-31T05:04:13.368Z,55.40
2023-03-31T05:06:41.129Z,41.85
2023-03-31T05:09:09.802Z,40.67
2023-03-31T05:11:38.327Z,48.25
2023-03-31T05:14:05.931Z,42.35
2023-03-31T05:16:33.719Z,41.92
2023-03-31T05:19:01.115Z,48.25
2023-03-31T05:21:30.565Z,49.88
2023-03-31T05:23:58.171Z,50.90
2023-03-31T05:26:26.500Z,48.50
2023-03-31T05:28:54.479Z,44.85
2023-03-31T05:31:22.150Z,42.35
2023-03-31T05:33:49.723Z,43.60
2023-03-31T05:36:18.133Z,58.58
2023-03-31T05:38:46.029Z,43.72
2023-03-31T05:41:13.431Z,47.28
2023-03-31T05:43:40.888Z,50.33
2023-03-31T05:46:08.690Z,65.63
2023-03-31T05:48:37.937Z,59.85
2023-03-31T05:51:06.089Z,45.90
2023-03-31T05:53:34.176Z,45.72
2023-03-31T05:56:04.096Z,49.63
2023-03-31T05:58:31.880Z,65.65
2023-03-31T06:01:08.427Z,45.65
2023-03-31T06:03:43.790Z,100.57
2023-03-31T06:06:15.108Z,46.58
2023-03-31T06:08:43.918Z,48.30
2023-03-31T06:11:14.268Z,54.38
2023-03-31T06:13:42.131Z,52.22
2023-03-31T06:16:12.178Z,51.05
2023-03-31T06:18:40.508Z,48.55
2023-03-31T06:21:08.780Z,41.42
2023-03-31T06:23:36.582Z,59.72
2023-03-31T06:26:08.201Z,55.80
2023-03-31T06:28:36.276Z,50.15
2023-03-31T06:31:12.762Z,53.97
2023-03-31T06:33:41.766Z,58.03
2023-03-31T06:36:10.618Z,51.30
2023-03-31T06:38:38.679Z,52.35
2023-03-31T06:41:07.796Z,49.33
2023-03-31T06:43:35.910Z,51.20
2023-03-31T06:46:03.691Z,53.97
2023-03-31T06:48:31.428Z,45.30
2023-03-31T06:51:03.857Z,47.60
2023-03-31T06:53:31.347Z,49.22
2023-03-31T06:55:59.210Z,50.00
2023-03-31T06:58:29.019Z,54.63
2023-03-31T07:00:58.462Z,48.37
2023-03-31T07:03:26.026Z,52.70
2023-03-31T07:05:54.763Z,50.00
2023-03-31T07:08:23.019Z,49.65
2023-03-31T07:10:58.277Z,53.03
2023-03-31T07:13:26.585Z,49.55
2023-03-31T07:15:54.635Z,51.67
2023-03-31T07:18:26.312Z,55.83
2023-03-31T07:20:53.923Z,49.63
2023-03-31T07:23:21.412Z,53.63
2023-03-31T07:25:49.637Z,48.72
2023-03-31T07:28:18.588Z,48.42
2023-03-31T07:30:46.009Z,47.10
2023-03-31T07:33:13.672Z,44.97
2023-03-31T07:35:41.572Z,47.30
2023-03-31T07:38:11.030Z,46.88
2023-03-31T07:40:39.322Z,43.78
2023-03-31T07:43:07.528Z,47.65
2023-03-31T07:45:35.796Z,49.33
2023-03-31T07:48:03.599Z,55.38
2023-03-31T07:50:31.312Z,42.65
2023-03-31T07:53:00.657Z,45.58
2023-03-31T07:55:28.070Z,42.45
2023-03-31T07:57:55.784Z,49.78
2023-03-31T08:00:23.723Z,49.83
2023-03-31T08:02:51.521Z,55.53
2023-03-31T08:05:20.899Z,45.67
2023-03-31T08:07:50.056Z,48.20
2023-03-31T08:10:21.686Z,55.33
2023-03-31T08:12:49.319Z,48.33
2023-03-31T08:15:17.262Z,44.95
2023-03-31T08:17:44.892Z,46.08
2023-03-31T08:20:12.690Z,47.10
2023-03-31T08:22:40.550Z,43.25
2023-03-31T08:25:08.578Z,47.03
2023-03-31T08:27:38.224Z,42.58
2023-03-31T08:30:07.942Z,46.47
2023-03-31T08:32:36.488Z,47.15
2023-03-31T08:35:04.337Z,52.58
2023-03-31T08:37:32.376Z,48.50
2023-03-31T08:40:00.445Z,42.42
2023-03-31T08:42:30.737Z,50.33
2023-03-31T08:45:06.923Z,54.30
2023-03-31T08:47:37.083Z,49.67
2023-03-31T08:50:14.122Z,44.53
2023-03-31T08:53:06.474Z,44.08
2023-03-31T08:55:52.280Z,37.97
2023-03-31T08:58:39.527Z,50.92
2023-03-31T09:01:44.151Z,50.22
2023-03-31T09:07:20.754Z,47.30
2023-03-31T09:10:11.309Z,56.83
2023-03-31T09:13:09.639Z,57.35
2023-03-31T09:15:46.391Z,61.75
2023-03-31T09:18:35.868Z,59.92
2023-03-31T09:21:30.790Z,54.53
2023-03-31T09:24:20.777Z,53.28
2023-03-31T09:27:14.939Z,54.88
2023-03-31T09:29:56.513Z,53.97
2023-03-31T09:32:28.557Z,53.97
2023-03-31T09:35:03.175Z,55.10
2023-03-31T09:37:33.269Z,55.20
2023-03-31T09:40:07.477Z,49.30
2023-03-31T09:42:36.653Z,51.65
2023-03-31T09:45:04.758Z,62.20
2023-03-31T09:47:47.366Z,54.72
2023-03-31T09:50:16.353Z,63.65
2023-03-31T09:52:50.475Z,51.78
2023-03-31T09:55:39.771Z,52.50
2023-03-31T09:58:13.158Z,52.25
2023-03-31T10:01:01.798Z,49.35
2023-03-31T10:03:36.581Z,50.63
2023-03-31T10:06:11.359Z,59.17
2023-03-31T10:08:47.799Z,52.78
2023-03-31T10:11:15.507Z,56.42
2023-03-31T10:13:45.929Z,51.58
2023-03-31T10:16:31.527Z,53.03
2023-03-31T10:19:26.679Z,50.92
2023-03-31T10:22:16.083Z,52.20
2023-03-31T10:24:45.490Z,49.00
2023-03-31T10:27:21.930Z,44.65
2023-03-31T10:29:56.599Z,48.83
2023-03-31T10:32:34.205Z,48.38
2023-03-31T10:35:08.063Z,50.72
2023-03-31T10:37:36.800Z,45.80
2023-03-31T10:40:19.536Z,35.85
2023-03-31T10:42:50.427Z,42.92
2023-03-31T10:45:29.672Z,42.65
2023-03-31T10:48:03.794Z,41.15
2023-03-31T10:50:36.578Z,41.85
2023-03-31T10:53:13.133Z,44.30
2023-03-31T10:56:15.132Z,42.53
2023-03-31T10:59:14.026Z,39.53
2023-03-31T11:02:05.735Z,42.38
2023-03-31T11:04:52.771Z,38.13
2023-03-31T11:07:22.872Z,42.53
2023-03-31T11:10:22.226Z,37.53
2023-03-31T11:13:14.533Z,40.95
2023-03-31T11:16:14.648Z,44.08
2023-03-31T11:18:48.054Z,32.63
2023-03-31T11:21:34.457Z,41.78
2023-03-31T11:24:22.934Z,35.50
2023-03-31T11:27:16.642Z,35.72
2023-03-31T11:30:13.280Z,46.83
2023-03-31T11:33:04.809Z,35.83
2023-03-31T11:35:57.039Z,39.70
2023-03-31T11:38:50.694Z,31.55
2023-03-31T11:41:22.812Z,37.58
2023-03-31T11:43:54.662Z,36.83
2023-03-31T11:46:24.012Z,31.65
2023-03-31T11:49:15.536Z,43.17
2023-03-31T11:52:02.774Z,33.40
2023-03-31T11:54:42.165Z,34.63
2023-03-31T11:57:33.394Z,36.97
2023-03-31T12:00:07.667Z,34.00
2023-03-31T12:02:43.455Z,36.42
2023-03-31T12:05:13.695Z,35.88
2023-03-31T12:08:03.162Z,37.22
2023-03-31T12:10:36.610Z,33.05
2023-03-31T12:13:15.852Z,34.60
2023-03-31T12:15:51.353Z,30.67
2023-03-31T12:18:25.052Z,24.02
2023-03-31T12:21:04.492Z,26.48
2023-03-31T12:23:38.967Z,24.90
2023-03-31T12:26:25.030Z,23.27
2023-03-31T12:28:58.298Z,27.40
2023-03-31T12:31:27.928Z,20.27
2023-03-31T12:34:08.741Z,25.95
2023-03-31T12:36:39.124Z,25.40
2023-03-31T12:39:30.751Z,33.28
2023-03-31T12:42:24.157Z,25.63
2023-03-31T12:45:01.202Z,28.45
2023-03-31T12:47:42.250Z,27.88
2023-03-31T12:50:47.041Z,33.22
2023-03-31T12:53:19.932Z,26.55
2023-03-31T12:55:54.236Z,25.80
2023-03-31T12:58:33.127Z,26.58
2023-03-31T13:01:07.205Z,30.55
2023-03-31T13:03:48.698Z,27.48
2023-03-31T13:06:28.095Z,29.85
2023-03-31T13:09:05.759Z,26.58
2023-03-31T13:11:36.522Z,30.00
2023-03-31T13:14:21.980Z,27.00
2023-03-31T13:16:56.505Z,25.05
2023-03-31T13:19:35.863Z,26.08
2023-03-31T13:22:06.159Z,29.52
2023-03-31T13:24:34.978Z,23.75
2023-03-31T13:27:29.824Z,29.23
2023-03-31T13:29:57.192Z,27.50
2023-03-31T13:32:28.581Z,22.42
2023-03-31T13:35:10.540Z,18.83
2023-03-31T13:37:46.799Z,18.88
2023-03-31T13:40:47.264Z,26.85
2023-03-31T13:43:51.422Z,26.83
2023-03-31T13:46:30.484Z,14.38
2023-03-31T13:49:30.368Z,20.38
2023-03-31T13:52:01.230Z,19.25
2023-03-31T13:54:34.694Z,16.10
2023-03-31T13:57:29.813Z,19.23
2023-03-31T14:00:20.608Z,21.17
2023-03-31T14:03:12.584Z,22.15
2023-03-31T14:05:45.190Z,26.00
2023-03-31T14:08:31.416Z,21.05
2023-03-31T14:11:17.044Z,20.60
2023-03-31T14:13:44.448Z,16.40
2023-03-31T14:16:14.206Z,20.90
2023-03-31T14:18:49.229Z,27.77
2023-03-31T14:21:32.032Z,27.80
2023-03-31T14:24:14.885Z,20.70
2023-03-31T14:27:25.734Z,25.20
2023-03-31T14:30:00.904Z,23.33
2023-03-31T14:32:38.826Z,27.05
2023-03-31T14:35:23.742Z,28.50
2023-03-31T14:37:51.194Z,28.08
2023-03-31T14:40:19.015Z,27.05
2023-03-31T14:42:50.052Z,23.42
2023-03-31T14:45:17.456Z,25.65
2023-03-31T14:48:16.519Z,23.77
2023-03-31T14:50:46.521Z,25.70
2023-03-31T14:53:18.225Z,22.23
2023-03-31T14:55:58.139Z,22.65
2023-03-31T14:58:35.022Z,30.58
2023-03-31T15:01:07.043Z,25.98
2023-03-31T15:03:38.697Z,22.70
2023-03-31T15:06:06.433Z,32.37
2023-03-31T15:08:37.415Z,46.38
2023-03-31T15:11:19.460Z,29.35
2023-03-31T15:14:03.594Z,42.70
2023-03-31T15:16:35.584Z,53.28
2023-03-31T15:19:11.796Z,32.25
2023-03-31T15:21:39.281Z,29.63
2023-03-31T15:24:07.922Z,26.00
2023-03-31T15:26:41.539Z,28.88
2023-03-31T15:29:17.597Z,23.98
2023-03-31T15:31:45.484Z,22.63
2023-03-31T15:34:37.017Z,23.85
2023-03-31T15:37:07.801Z,19.58
2023-03-31T15:39:37.313Z,19.63
2023-03-31T15:42:07.354Z,26.77
2023-03-31T15:45:16.118Z,19.30
2023-03-31T15:47:54.313Z,21.98
2023-03-31T15:50:24.366Z,23.55
2023-03-31T15:52:54.502Z,27.27
2023-03-31T15:55:41.185Z,29.52
2023-03-31T15:58:15.785Z,21.80
2023-03-31T16:00:54.430Z,23.35
2023-03-31T16:03:28.847Z,27.23
2023-03-31T16:05:58.510Z,20.20
2023-03-31T16:08:33.326Z,22.58
2023-03-31T16:11:08.636Z,24.17
2023-03-31T16:13:39.979Z,27.23
2023-03-31T16:16:20.172Z,28.98
2023-03-31T16:18:51.136Z,29.13
2023-03-31T16:21:44.576Z,29.55
2023-03-31T16:24:11.997Z,22.13
2023-03-31T16:26:39.503Z,20.05
2023-03-31T16:29:07.421Z,27.98
2023-03-31T16:31:34.837Z,30.23
2023-03-31T16:34:04.760Z,24.25
2023-03-31T16:39:21.262Z,21.65
2023-03-31T16:41:48.637Z,26.92
2023-03-31T16:44:16.212Z,27.02
2023-03-31T16:46:43.655Z,22.75
2023-03-31T16:49:11.097Z,30.20
2023-03-31T16:51:38.455Z,28.60
2023-03-31T16:54:05.940Z,28.08
2023-03-31T16:56:33.314Z,28.48
2023-03-31T16:59:01.719Z,28.42
2023-03-31T17:01:29.232Z,24.58
2023-03-31T17:03:59.154Z,41.47
2023-03-31T17:06:26.696Z,30.83
2023-03-31T17:08:54.086Z,43.53
2023-03-31T17:11:21.587Z,43.42
2023-03-31T17:13:49.893Z,45.80
2023-03-31T17:16:24.339Z,48.50
2023-03-31T17:18:57.037Z,50.75
2023-03-31T17:21:24.636Z,61.00
2023-03-31T17:23:52.320Z,46.65
2023-03-31T17:26:19.722Z,51.53
2023-03-31T17:28:47.239Z,54.90
2023-03-31T17:31:21.895Z,45.72
2023-03-31T17:33:49.361Z,56.92
2023-03-31T17:36:16.936Z,54.45
2023-03-31T17:38:44.908Z,54.50
2023-03-31T17:41:13.793Z,52.53
2023-03-31T17:43:45.096Z,48.78
2023-03-31T17:46:14.182Z,60.47
2023-03-31T17:48:42.191Z,55.88
2023-03-31T17:51:13.798Z,52.90
2023-03-31T17:53:42.849Z,55.10
2023-03-31T17:56:11.108Z,56.67
2023-03-31T17:58:38.534Z,54.03
2023-03-31T18:01:07.740Z,53.45
2023-03-31T18:03:35.641Z,51.92
2023-03-31T18:06:08.609Z,61.53
2023-03-31T18:08:36.229Z,60.72
2023-03-31T18:11:05.292Z,58.03
2023-03-31T18:13:34.801Z,58.33
2023-03-31T18:16:02.983Z,53.03
2023-03-31T18:18:36.710Z,50.92
2023-03-31T18:21:10.723Z,51.20
2023-03-31T18:23:39.330Z,55.80
2023-03-31T18:26:08.446Z,54.22
2023-03-31T18:28:36.089Z,61.92
2023-03-31T18:31:10.745Z,67.47
2023-03-31T18:33:39.454Z,76.55
2023-03-31T18:36:07.842Z,65.45
2023-03-31T18:38:37.016Z,79.10
2023-03-31T18:41:05.135Z,63.40
2023-03-31T18:43:33.361Z,69.07
2023-03-31T18:46:01.822Z,64.72
2023-03-31T18:48:29.547Z,67.18
2023-03-31T18:50:57.506Z,69.88
2023-03-31T18:53:25.363Z,70.35
2023-03-31T18:55:54.990Z,69.38
2023-03-31T18:58:23.171Z,72.28
2023-03-31T19:00:51.060Z,76.55
2023-03-31T19:03:19.211Z,68.50
2023-03-31T19:05:47.245Z,80.78
2023-03-31T19:08:14.629Z,84.75
2023-03-31T19:10:42.138Z,69.97
2023-03-31T19:13:14.715Z,71.03
2023-03-31T19:15:42.282Z,72.07
2023-03-31T19:18:14.289Z,74.75
2023-03-31T19:20:47.069Z,67.93
2023-03-31T19:23:14.543Z,69.80
2023-03-31T19:25:41.925Z,56.70
2023-03-31T19:28:09.476Z,61.50
2023-03-31T19:30:36.911Z,48.13
2023-03-31T19:33:04.508Z,55.80
2023-03-31T19:35:32.109Z,67.90
2023-03-31T19:37:59.642Z,69.97
2023-03-31T19:40:27.967Z,71.88
2023-03-31T19:42:55.543Z,82.60
2023-03-31T19:45:22.928Z,79.65
2023-03-31T19:47:50.526Z,77.57
2023-03-31T19:50:17.959Z,73.70
2023-03-31T19:52:46.841Z,67.68
2023-03-31T19:55:16.846Z,55.72
2023-03-31T19:57:44.196Z,57.88
2023-03-31T20:00:12.533Z,63.60
2023-03-31T20:02:40.068Z,76.50
2023-03-31T20:05:08.019Z,87.72
2023-03-31T20:07:35.382Z,74.20
2023-03-31T20:10:02.859Z,66.13
2023-03-31T20:12:30.333Z,60.05
2023-03-31T20:14:57.679Z,91.32
2023-03-31T20:17:25.148Z,78.68
2023-03-31T20:19:52.497Z,60.58
2023-03-31T20:22:19.956Z,66.47
2023-03-31T20:24:47.310Z,65.28
2023-03-31T20:27:14.707Z,73.13
2023-03-31T20:29:42.065Z,61.97
2023-03-31T20:32:09.858Z,65.10
2023-03-31T20:34:37.432Z,77.28
2023-03-31T20:37:04.791Z,65.07
2023-03-31T20:39:32.260Z,66.75
2023-03-31T20:41:59.599Z,65.72
2023-03-31T20:44:27.018Z,68.70
2023-03-31T20:46:56.005Z,72.28
2023-03-31T20:49:23.430Z,70.05
2023-03-31T20:51:50.996Z,72.63
2023-03-31T20:54:18.533Z,68.55
2023-03-31T20:56:47.161Z,72.45
2023-03-31T20:59:15.867Z,62.80
2023-03-31T21:01:45.279Z,85.38
2023-03-31T21:04:13.271Z,66.40
2023-03-31T21:06:43.107Z,62.50
2023-03-31T21:09:12.311Z,64.18
2023-03-31T21:11:40.769Z,61.55
2023-03-31T21:14:12.557Z,68.05
2023-03-31T21:16:40.345Z,75.00
2023-03-31T21:19:07.759Z,69.82
2023-03-31T21:21:36.222Z,65.05
2023-03-31T21:24:03.998Z,70.40
2023-03-31T21:26:31.394Z,67.72
2023-03-31T21:28:58.797Z,62.42
2023-03-31T21:31:27.191Z,58.72
2023-03-31T21:33:57.540Z,65.50
2023-03-31T21:36:25.584Z,64.95
2023-03-31T21:38:54.034Z,59.20
2023-03-31T21:41:27.993Z,67.15
2023-03-31T21:43:56.545Z,63.00
2023-03-31T21:46:27.451Z,62.65
2023-03-31T21:48:56.454Z,70.07
2023-03-31T21:51:25.210Z,65.95
2023-03-31T21:53:55.397Z,72.35
2023-03-31T21:56:24.808Z,67.28
2023-03-31T21:58:52.673Z,67.07
2023-03-31T22:01:21.626Z,63.90
2023-03-31T22:03:50.094Z,52.38
2023-03-31T22:06:17.822Z,56.92
2023-03-31T22:08:45.667Z,59.53
2023-03-31T22:11:13.649Z,66.38
2023-03-31T22:13:41.615Z,60.63
2023-03-31T22:16:18.971Z,58.65
2023-03-31T22:18:47.642Z,66.07
2023-03-31T22:21:26.252Z,63.55
2023-03-31T22:23:55.923Z,58.78
2023-03-31T22:26:24.301Z,63.42
2023-03-31T22:28:52.108Z,59.90
2023-03-31T22:31:19.695Z,66.55
2023-03-31T22:33:47.464Z,60.17
2023-03-31T22:36:15.749Z,65.07
2023-03-31T22:38:43.250Z,61.70
2023-03-31T22:41:10.748Z,68.78
2023-03-31T22:43:38.140Z,65.30
2023-03-31T22:46:07.187Z,62.53
2023-03-31T22:48:34.629Z,67.60
2023-03-31T22:51:04.915Z,64.00
2023-03-31T22:53:33.123Z,67.65
2023-03-31T22:56:10.565Z,70.32
2023-03-31T22:58:38.488Z,72.15
2023-03-31T23:01:06.975Z,66.65
2023-03-31T23:03:35.431Z,65.10
2023-03-31T23:06:05.189Z,63.03
2023-03-31T23:08:33.704Z,75.35
2023-03-31T23:11:02.996Z,70.15
2023-03-31T23:13:30.883Z,68.88
2023-03-31T23:16:22.469Z,71.78
2023-03-31T23:18:51.789Z,63.45
2023-03-31T23:21:22.562Z,64.28
2023-03-31T23:23:55.540Z,57.47
2023-03-31T23:26:24.966Z,68.00
2023-03-31T23:28:53.037Z,68.97
2023-03-31T23:31:23.212Z,64.90
2023-03-31T23:33:50.813Z,71.05
2023-03-31T23:36:20.924Z,72.43
2023-03-31T23:38:50.657Z,67.40
2023-03-31T23:41:19.453Z,64.38
2023-03-31T23:43:47.158Z,63.95
2023-03-31T23:46:14.631Z,72.03
2023-03-31T23:48:42.123Z,77.88
2023-03-31T23:51:10.097Z,76.10
2023-03-31T23:53:37.474Z,67.93
2023-03-31T23:56:10.518Z,68.15
2023-03-31T23:58:40.236Z,67.15
